sensor_id;sensor_type;location;lat;lon;timestamp;P1;P2;P0
82886;PMS5003;72660;51.258;-2.200;2024-01-11T00:00:37;9;9;
82886;PMS5003;72660;51.258;-2.200;2024-01-11T00:03:03;10;10;
82886;PMS5003;72660;51.258;-2.200;2024-01-11T00:05:28;11;11;
82886;PMS5003;72660;51.258;-2.200;2024-01-11T00:07:54;13;11;
82886;PMS5003;72660;51.258;-2.200;2024-01-11T00:10:20;11;11;
82886;PMS5003;72660;51.258;-2.200;2024-01-11T00:12:45;10;10;
82886;PMS5003;72660;51.258;-2.200;2024-01-11T00:15:10;11;9;
82886;PMS5003;72660;51.258;-2.200;2024-01-11T00:17:36;14;11;
82886;PMS5003;72660;51.258;-2.200;2024-01-11T00:20:02;11;10;
82886;PMS5003;72660;51.258;-2.200;2024-01-11T00:22:27;12;11;
82886;PMS5003;72660;51.258;-2.200;2024-01-11T00:24:53;10;10;
82886;PMS5003;72660;51.258;-2.200;2024-01-11T00:27:18;9;9;
82886;PMS5003;72660;51.258;-2.200;2024-01-11T00:29:44;13;11;
82886;PMS5003;72660;51.258;-2.200;2024-01-11T00:32:09;13;9;
82886;PMS5003;72660;51.258;-2.200;2024-01-11T00:34:34;8;8;
82886;PMS5003;72660;51.258;-2.200;2024-01-11T00:36:59;10;10;
82886;PMS5003;72660;51.258;-2.200;2024-01-11T00:39:25;11;11;
82886;PMS5003;72660;51.258;-2.200;2024-01-11T00:41:50;9;9;
82886;PMS5003;72660;51.258;-2.200;2024-01-11T00:44:15;9;9;
82886;PMS5003;72660;51.258;-2.200;2024-01-11T00:46:41;9;8;
82886;PMS5003;72660;51.258;-2.200;2024-01-11T00:49:06;9;9;
82886;PMS5003;72660;51.258;-2.200;2024-01-11T00:51:31;7;7;
82886;PMS5003;72660;51.258;-2.200;2024-01-11T00:53:57;9;8;
82886;PMS5003;72660;51.258;-2.200;2024-01-11T00:56:23;9;8;
82886;PMS5003;72660;51.258;-2.200;2024-01-11T00:58:48;7;7;
82886;PMS5003;72660;51.258;-2.200;2024-01-11T01:01:14;8;8;
82886;PMS5003;72660;51.258;-2.200;2024-01-11T01:03:39;10;7;
82886;PMS5003;72660;51.258;-2.200;2024-01-11T01:06:05;11;10;
82886;PMS5003;72660;51.258;-2.200;2024-01-11T01:08:30;5;5;
82886;PMS5003;72660;51.258;-2.200;2024-01-11T01:10:56;8;7;
82886;PMS5003;72660;51.258;-2.200;2024-01-11T01:13:21;9;6;
82886;PMS5003;72660;51.258;-2.200;2024-01-11T01:15:46;7;7;
82886;PMS5003;72660;51.258;-2.200;2024-01-11T01:18:12;9;7;
82886;PMS5003;72660;51.258;-2.200;2024-01-11T01:20:38;10;8;
82886;PMS5003;72660;51.258;-2.200;2024-01-11T01:23:03;10;8;
82886;PMS5003;72660;51.258;-2.200;2024-01-11T01:25:28;10;7;
82886;PMS5003;72660;51.258;-2.200;2024-01-11T01:27:54;9;8;
82886;PMS5003;72660;51.258;-2.200;2024-01-11T01:30:19;8;6;
82886;PMS5003;72660;51.258;-2.200;2024-01-11T01:32:45;5;5;
82886;PMS5003;72660;51.258;-2.200;2024-01-11T01:35:10;5;5;
82886;PMS5003;72660;51.258;-2.200;2024-01-11T01:37:35;7;7;
82886;PMS5003;72660;51.258;-2.200;2024-01-11T01:40:01;6;5;
82886;PMS5003;72660;51.258;-2.200;2024-01-11T01:42:27;5;5;
82886;PMS5003;72660;51.258;-2.200;2024-01-11T01:44:52;7;7;
82886;PMS5003;72660;51.258;-2.200;2024-01-11T01:47:18;9;6;
82886;PMS5003;72660;51.258;-2.200;2024-01-11T01:49:43;10;7;
82886;PMS5003;72660;51.258;-2.200;2024-01-11T01:52:08;7;6;
82886;PMS5003;72660;51.258;-2.200;2024-01-11T01:54:34;9;7;
82886;PMS5003;72660;51.258;-2.200;2024-01-11T01:56:59;6;5;
82886;PMS5003;72660;51.258;-2.200;2024-01-11T01:59:25;7;6;
82886;PMS5003;72660;51.258;-2.200;2024-01-11T02:01:50;5;5;
82886;PMS5003;72660;51.258;-2.200;2024-01-11T02:04:16;7;6;
82886;PMS5003;72660;51.258;-2.200;2024-01-11T02:06:41;6;6;
82886;PMS5003;72660;51.258;-2.200;2024-01-11T02:09:07;7;5;
82886;PMS5003;72660;51.258;-2.200;2024-01-11T02:11:32;6;5;
82886;PMS5003;72660;51.258;-2.200;2024-01-11T02:13:58;5;5;
82886;PMS5003;72660;51.258;-2.200;2024-01-11T02:16:23;8;7;
82886;PMS5003;72660;51.258;-2.200;2024-01-11T02:18:49;8;8;
82886;PMS5003;72660;51.258;-2.200;2024-01-11T02:21:15;8;7;
82886;PMS5003;72660;51.258;-2.200;2024-01-11T02:23:41;8;6;
82886;PMS5003;72660;51.258;-2.200;2024-01-11T02:26:06;6;6;
82886;PMS5003;72660;51.258;-2.200;2024-01-11T02:28:32;5;5;
82886;PMS5003;72660;51.258;-2.200;2024-01-11T02:30:57;9;9;
82886;PMS5003;72660;51.258;-2.200;2024-01-11T02:33:22;7;7;
82886;PMS5003;72660;51.258;-2.200;2024-01-11T02:35:47;5;5;
82886;PMS5003;72660;51.258;-2.200;2024-01-11T02:38:13;4;4;
82886;PMS5003;72660;51.258;-2.200;2024-01-11T02:40:38;6;5;
82886;PMS5003;72660;51.258;-2.200;2024-01-11T02:43:07;10;9;
82886;PMS5003;72660;51.258;-2.200;2024-01-11T02:45:29;8;8;
82886;PMS5003;72660;51.258;-2.200;2024-01-11T02:47:54;3;3;
82886;PMS5003;72660;51.258;-2.200;2024-01-11T02:50:20;5;5;
82886;PMS5003;72660;51.258;-2.200;2024-01-11T02:52:45;6;6;
82886;PMS5003;72660;51.258;-2.200;2024-01-11T02:55:11;6;5;
82886;PMS5003;72660;51.258;-2.200;2024-01-11T02:57:36;7;7;
82886;PMS5003;72660;51.258;-2.200;2024-01-11T03:00:02;7;7;
82886;PMS5003;72660;51.258;-2.200;2024-01-11T03:02:27;7;7;
82886;PMS5003;72660;51.258;-2.200;2024-01-11T03:04:52;5;5;
82886;PMS5003;72660;51.258;-2.200;2024-01-11T03:07:18;9;9;
82886;PMS5003;72660;51.258;-2.200;2024-01-11T03:09:43;6;6;
82886;PMS5003;72660;51.258;-2.200;2024-01-11T03:12:09;7;7;
82886;PMS5003;72660;51.258;-2.200;2024-01-11T03:14:34;6;6;
82886;PMS5003;72660;51.258;-2.200;2024-01-11T03:17:00;8;6;
82886;PMS5003;72660;51.258;-2.200;2024-01-11T03:19:25;9;6;
82886;PMS5003;72660;51.258;-2.200;2024-01-11T03:21:51;7;6;
82886;PMS5003;72660;51.258;-2.200;2024-01-11T03:24:16;8;7;
82886;PMS5003;72660;51.258;-2.200;2024-01-11T03:26:42;8;8;
82886;PMS5003;72660;51.258;-2.200;2024-01-11T03:29:07;7;6;
82886;PMS5003;72660;51.258;-2.200;2024-01-11T03:31:33;8;7;
82886;PMS5003;72660;51.258;-2.200;2024-01-11T03:33:58;10;7;
82886;PMS5003;72660;51.258;-2.200;2024-01-11T03:36:24;7;5;
82886;PMS5003;72660;51.258;-2.200;2024-01-11T03:38:49;7;5;
82886;PMS5003;72660;51.258;-2.200;2024-01-11T03:41:15;13;9;
82886;PMS5003;72660;51.258;-2.200;2024-01-11T03:43:40;10;7;
82886;PMS5003;72660;51.258;-2.200;2024-01-11T03:46:06;9;7;
82886;PMS5003;72660;51.258;-2.200;2024-01-11T03:48:31;6;6;
82886;PMS5003;72660;51.258;-2.200;2024-01-11T03:50:57;7;6;
82886;PMS5003;72660;51.258;-2.200;2024-01-11T03:53:23;9;8;
82886;PMS5003;72660;51.258;-2.200;2024-01-11T03:55:48;9;8;
82886;PMS5003;72660;51.258;-2.200;2024-01-11T03:58:13;7;7;
82886;PMS5003;72660;51.258;-2.200;2024-01-11T04:00:39;6;6;
82886;PMS5003;72660;51.258;-2.200;2024-01-11T04:03:06;9;7;
82886;PMS5003;72660;51.258;-2.200;2024-01-11T04:05:30;10;9;
82886;PMS5003;72660;51.258;-2.200;2024-01-11T04:07:56;10;8;
82886;PMS5003;72660;51.258;-2.200;2024-01-11T04:10:21;7;7;
82886;PMS5003;72660;51.258;-2.200;2024-01-11T04:12:47;9;9;
82886;PMS5003;72660;51.258;-2.200;2024-01-11T04:15:12;9;6;
82886;PMS5003;72660;51.258;-2.200;2024-01-11T04:17:38;6;5;
82886;PMS5003;72660;51.258;-2.200;2024-01-11T04:20:04;10;8;
82886;PMS5003;72660;51.258;-2.200;2024-01-11T04:22:29;8;7;
82886;PMS5003;72660;51.258;-2.200;2024-01-11T04:24:54;12;8;
82886;PMS5003;72660;51.258;-2.200;2024-01-11T04:27:20;9;7;
82886;PMS5003;72660;51.258;-2.200;2024-01-11T04:29:45;16;11;
82886;PMS5003;72660;51.258;-2.200;2024-01-11T04:32:11;10;8;
82886;PMS5003;72660;51.258;-2.200;2024-01-11T04:34:36;10;7;
82886;PMS5003;72660;51.258;-2.200;2024-01-11T04:37:02;9;6;
82886;PMS5003;72660;51.258;-2.200;2024-01-11T04:39:27;8;6;
82886;PMS5003;72660;51.258;-2.200;2024-01-11T04:41:53;11;8;
82886;PMS5003;72660;51.258;-2.200;2024-01-11T04:44:18;7;6;
82886;PMS5003;72660;51.258;-2.200;2024-01-11T04:46:43;11;11;
82886;PMS5003;72660;51.258;-2.200;2024-01-11T04:49:09;9;6;
82886;PMS5003;72660;51.258;-2.200;2024-01-11T04:51:34;6;6;
82886;PMS5003;72660;51.258;-2.200;2024-01-11T04:54:00;9;8;
82886;PMS5003;72660;51.258;-2.200;2024-01-11T04:56:25;7;7;
82886;PMS5003;72660;51.258;-2.200;2024-01-11T04:58:51;9;8;
82886;PMS5003;72660;51.258;-2.200;2024-01-11T05:01:17;9;8;
82886;PMS5003;72660;51.258;-2.200;2024-01-11T05:03:42;11;6;
82886;PMS5003;72660;51.258;-2.200;2024-01-11T05:06:07;6;6;
82886;PMS5003;72660;51.258;-2.200;2024-01-11T05:08:33;11;9;
82886;PMS5003;72660;51.258;-2.200;2024-01-11T05:10:58;8;7;
82886;PMS5003;72660;51.258;-2.200;2024-01-11T05:13:24;11;10;
82886;PMS5003;72660;51.258;-2.200;2024-01-11T05:15:50;5;5;
82886;PMS5003;72660;51.258;-2.200;2024-01-11T05:18:15;10;7;
82886;PMS5003;72660;51.258;-2.200;2024-01-11T05:20:41;10;8;
82886;PMS5003;72660;51.258;-2.200;2024-01-11T05:23:06;9;8;
82886;PMS5003;72660;51.258;-2.200;2024-01-11T05:25:32;10;7;
82886;PMS5003;72660;51.258;-2.200;2024-01-11T05:27:57;8;8;
82886;PMS5003;72660;51.258;-2.200;2024-01-11T05:30:23;8;5;
82886;PMS5003;72660;51.258;-2.200;2024-01-11T05:32:48;10;7;
82886;PMS5003;72660;51.258;-2.200;2024-01-11T05:35:14;7;7;
82886;PMS5003;72660;51.258;-2.200;2024-01-11T05:37:39;7;6;
82886;PMS5003;72660;51.258;-2.200;2024-01-11T05:40:05;10;7;
82886;PMS5003;72660;51.258;-2.200;2024-01-11T05:42:31;7;7;
82886;PMS5003;72660;51.258;-2.200;2024-01-11T05:44:56;8;7;
82886;PMS5003;72660;51.258;-2.200;2024-01-11T05:47:22;8;7;
82886;PMS5003;72660;51.258;-2.200;2024-01-11T05:49:47;8;8;
82886;PMS5003;72660;51.258;-2.200;2024-01-11T05:52:13;8;8;
82886;PMS5003;72660;51.258;-2.200;2024-01-11T05:54:38;6;6;
82886;PMS5003;72660;51.258;-2.200;2024-01-11T05:57:04;12;8;
82886;PMS5003;72660;51.258;-2.200;2024-01-11T05:59:29;10;10;
82886;PMS5003;72660;51.258;-2.200;2024-01-11T06:01:55;10;6;
82886;PMS5003;72660;51.258;-2.200;2024-01-11T06:04:20;8;7;
82886;PMS5003;72660;51.258;-2.200;2024-01-11T06:06:46;8;8;
82886;PMS5003;72660;51.258;-2.200;2024-01-11T06:09:11;9;9;
82886;PMS5003;72660;51.258;-2.200;2024-01-11T06:11:36;7;7;
82886;PMS5003;72660;51.258;-2.200;2024-01-11T06:14:02;11;8;
82886;PMS5003;72660;51.258;-2.200;2024-01-11T06:16:27;14;11;
82886;PMS5003;72660;51.258;-2.200;2024-01-11T06:18:53;7;7;
82886;PMS5003;72660;51.258;-2.200;2024-01-11T06:21:18;10;9;
82886;PMS5003;72660;51.258;-2.200;2024-01-11T06:23:43;10;10;
82886;PMS5003;72660;51.258;-2.200;2024-01-11T06:26:09;10;10;
82886;PMS5003;72660;51.258;-2.200;2024-01-11T06:28:34;11;8;
82886;PMS5003;72660;51.258;-2.200;2024-01-11T06:31:00;13;11;
82886;PMS5003;72660;51.258;-2.200;2024-01-11T06:33:26;12;9;
82886;PMS5003;72660;51.258;-2.200;2024-01-11T06:35:51;7;7;
82886;PMS5003;72660;51.258;-2.200;2024-01-11T06:38:16;14;14;
82886;PMS5003;72660;51.258;-2.200;2024-01-11T06:40:41;10;9;
82886;PMS5003;72660;51.258;-2.200;2024-01-11T06:43:07;11;10;
82886;PMS5003;72660;51.258;-2.200;2024-01-11T06:45:32;12;11;
82886;PMS5003;72660;51.258;-2.200;2024-01-11T06:47:57;15;12;
82886;PMS5003;72660;51.258;-2.200;2024-01-11T06:50:23;8;8;
82886;PMS5003;72660;51.258;-2.200;2024-01-11T06:52:48;14;14;
82886;PMS5003;72660;51.258;-2.200;2024-01-11T06:55:14;8;8;
82886;PMS5003;72660;51.258;-2.200;2024-01-11T06:57:39;12;10;
82886;PMS5003;72660;51.258;-2.200;2024-01-11T07:00:05;16;10;
82886;PMS5003;72660;51.258;-2.200;2024-01-11T07:02:30;12;10;
82886;PMS5003;72660;51.258;-2.200;2024-01-11T07:04:56;11;10;
82886;PMS5003;72660;51.258;-2.200;2024-01-11T07:07:21;9;7;
82886;PMS5003;72660;51.258;-2.200;2024-01-11T07:09:46;10;8;
82886;PMS5003;72660;51.258;-2.200;2024-01-11T07:12:12;6;6;
82886;PMS5003;72660;51.258;-2.200;2024-01-11T07:14:37;12;11;
82886;PMS5003;72660;51.258;-2.200;2024-01-11T07:17:03;7;7;
82886;PMS5003;72660;51.258;-2.200;2024-01-11T07:19:28;12;10;
82886;PMS5003;72660;51.258;-2.200;2024-01-11T07:21:54;11;9;
82886;PMS5003;72660;51.258;-2.200;2024-01-11T07:24:20;9;8;
82886;PMS5003;72660;51.258;-2.200;2024-01-11T07:26:46;9;7;
82886;PMS5003;72660;51.258;-2.200;2024-01-11T07:29:11;8;8;
82886;PMS5003;72660;51.258;-2.200;2024-01-11T07:31:36;10;10;
82886;PMS5003;72660;51.258;-2.200;2024-01-11T07:34:02;11;8;
82886;PMS5003;72660;51.258;-2.200;2024-01-11T07:36:27;9;9;
82886;PMS5003;72660;51.258;-2.200;2024-01-11T07:38:53;6;6;
82886;PMS5003;72660;51.258;-2.200;2024-01-11T07:41:18;9;8;
82886;PMS5003;72660;51.258;-2.200;2024-01-11T07:43:43;9;9;
82886;PMS5003;72660;51.258;-2.200;2024-01-11T07:46:09;11;10;
82886;PMS5003;72660;51.258;-2.200;2024-01-11T07:48:34;11;9;
82886;PMS5003;72660;51.258;-2.200;2024-01-11T07:50:59;8;8;
82886;PMS5003;72660;51.258;-2.200;2024-01-11T07:53:25;11;9;
82886;PMS5003;72660;51.258;-2.200;2024-01-11T07:55:50;9;9;
82886;PMS5003;72660;51.258;-2.200;2024-01-11T07:58:15;13;10;
82886;PMS5003;72660;51.258;-2.200;2024-01-11T08:00:41;15;12;
82886;PMS5003;72660;51.258;-2.200;2024-01-11T08:03:06;8;8;
82886;PMS5003;72660;51.258;-2.200;2024-01-11T08:05:32;10;8;
82886;PMS5003;72660;51.258;-2.200;2024-01-11T08:07:58;8;7;
82886;PMS5003;72660;51.258;-2.200;2024-01-11T08:10:23;11;7;
82886;PMS5003;72660;51.258;-2.200;2024-01-11T08:12:48;10;9;
82886;PMS5003;72660;51.258;-2.200;2024-01-11T08:15:13;10;10;
82886;PMS5003;72660;51.258;-2.200;2024-01-11T08:17:38;9;7;
82886;PMS5003;72660;51.258;-2.200;2024-01-11T08:20:04;8;8;
82886;PMS5003;72660;51.258;-2.200;2024-01-11T08:22:30;10;9;
82886;PMS5003;72660;51.258;-2.200;2024-01-11T08:24:55;10;8;
82886;PMS5003;72660;51.258;-2.200;2024-01-11T08:27:21;9;8;
82886;PMS5003;72660;51.258;-2.200;2024-01-11T08:29:46;10;10;
82886;PMS5003;72660;51.258;-2.200;2024-01-11T08:32:11;10;10;
82886;PMS5003;72660;51.258;-2.200;2024-01-11T08:34:37;9;8;
82886;PMS5003;72660;51.258;-2.200;2024-01-11T08:37:02;9;9;
82886;PMS5003;72660;51.258;-2.200;2024-01-11T08:39:28;11;8;
82886;PMS5003;72660;51.258;-2.200;2024-01-11T08:41:53;10;10;
82886;PMS5003;72660;51.258;-2.200;2024-01-11T08:44:18;9;8;
82886;PMS5003;72660;51.258;-2.200;2024-01-11T08:46:43;9;9;
82886;PMS5003;72660;51.258;-2.200;2024-01-11T08:49:09;7;7;
82886;PMS5003;72660;51.258;-2.200;2024-01-11T08:51:34;11;11;
82886;PMS5003;72660;51.258;-2.200;2024-01-11T08:53:59;8;8;
82886;PMS5003;72660;51.258;-2.200;2024-01-11T08:56:25;12;9;
82886;PMS5003;72660;51.258;-2.200;2024-01-11T08:58:50;9;8;
82886;PMS5003;72660;51.258;-2.200;2024-01-11T09:01:16;11;11;
82886;PMS5003;72660;51.258;-2.200;2024-01-11T09:03:42;10;8;
82886;PMS5003;72660;51.258;-2.200;2024-01-11T09:06:07;9;9;
82886;PMS5003;72660;51.258;-2.200;2024-01-11T09:08:33;7;7;
82886;PMS5003;72660;51.258;-2.200;2024-01-11T09:10:59;13;11;
82886;PMS5003;72660;51.258;-2.200;2024-01-11T09:13:24;9;7;
82886;PMS5003;72660;51.258;-2.200;2024-01-11T09:15:49;12;12;
82886;PMS5003;72660;51.258;-2.200;2024-01-11T09:18:14;7;6;
82886;PMS5003;72660;51.258;-2.200;2024-01-11T09:20:40;7;7;
82886;PMS5003;72660;51.258;-2.200;2024-01-11T09:23:05;8;8;
82886;PMS5003;72660;51.258;-2.200;2024-01-11T09:25:30;6;6;
82886;PMS5003;72660;51.258;-2.200;2024-01-11T09:27:55;6;6;
82886;PMS5003;72660;51.258;-2.200;2024-01-11T09:30:21;8;8;
82886;PMS5003;72660;51.258;-2.200;2024-01-11T09:32:46;10;9;
82886;PMS5003;72660;51.258;-2.200;2024-01-11T09:35:12;9;9;
82886;PMS5003;72660;51.258;-2.200;2024-01-11T09:37:37;11;8;
82886;PMS5003;72660;51.258;-2.200;2024-01-11T09:40:03;8;8;
82886;PMS5003;72660;51.258;-2.200;2024-01-11T09:42:28;9;6;
82886;PMS5003;72660;51.258;-2.200;2024-01-11T09:44:53;3;3;
82886;PMS5003;72660;51.258;-2.200;2024-01-11T09:47:18;7;6;
82886;PMS5003;72660;51.258;-2.200;2024-01-11T09:49:44;6;6;
82886;PMS5003;72660;51.258;-2.200;2024-01-11T09:52:10;7;6;
82886;PMS5003;72660;51.258;-2.200;2024-01-11T09:54:35;9;7;
82886;PMS5003;72660;51.258;-2.200;2024-01-11T09:57:00;12;6;
82886;PMS5003;72660;51.258;-2.200;2024-01-11T09:59:26;5;5;
82886;PMS5003;72660;51.258;-2.200;2024-01-11T10:01:52;8;8;
82886;PMS5003;72660;51.258;-2.200;2024-01-11T10:04:17;8;6;
82886;PMS5003;72660;51.258;-2.200;2024-01-11T10:06:43;5;5;
82886;PMS5003;72660;51.258;-2.200;2024-01-11T10:09:08;7;6;
82886;PMS5003;72660;51.258;-2.200;2024-01-11T10:11:33;3;3;
82886;PMS5003;72660;51.258;-2.200;2024-01-11T10:13:59;6;4;
82886;PMS5003;72660;51.258;-2.200;2024-01-11T10:16:24;4;4;
82886;PMS5003;72660;51.258;-2.200;2024-01-11T10:18:51;10;7;
82886;PMS5003;72660;51.258;-2.200;2024-01-11T10:21:15;8;6;
82886;PMS5003;72660;51.258;-2.200;2024-01-11T10:23:41;4;4;
82886;PMS5003;72660;51.258;-2.200;2024-01-11T10:26:06;6;6;
82886;PMS5003;72660;51.258;-2.200;2024-01-11T10:28:32;6;6;
82886;PMS5003;72660;51.258;-2.200;2024-01-11T10:30:57;5;5;
82886;PMS5003;72660;51.258;-2.200;2024-01-11T10:33:23;6;5;
82886;PMS5003;72660;51.258;-2.200;2024-01-11T10:35:48;6;6;
82886;PMS5003;72660;51.258;-2.200;2024-01-11T10:38:14;7;6;
82886;PMS5003;72660;51.258;-2.200;2024-01-11T10:40:39;7;5;
82886;PMS5003;72660;51.258;-2.200;2024-01-11T10:43:05;5;5;
82886;PMS5003;72660;51.258;-2.200;2024-01-11T10:45:30;5;5;
82886;PMS5003;72660;51.258;-2.200;2024-01-11T10:47:56;9;8;
82886;PMS5003;72660;51.258;-2.200;2024-01-11T10:50:22;7;7;
82886;PMS5003;72660;51.258;-2.200;2024-01-11T10:52:51;6;6;
82886;PMS5003;72660;51.258;-2.200;2024-01-11T10:55:12;10;7;
82886;PMS5003;72660;51.258;-2.200;2024-01-11T10:57:38;9;7;
82886;PMS5003;72660;51.258;-2.200;2024-01-11T11:00:03;4;4;
82886;PMS5003;72660;51.258;-2.200;2024-01-11T11:02:29;7;5;
82886;PMS5003;72660;51.258;-2.200;2024-01-11T11:04:54;5;4;
82886;PMS5003;72660;51.258;-2.200;2024-01-11T11:07:20;5;5;
82886;PMS5003;72660;51.258;-2.200;2024-01-11T11:09:45;5;4;
82886;PMS5003;72660;51.258;-2.200;2024-01-11T11:12:11;4;4;
82886;PMS5003;72660;51.258;-2.200;2024-01-11T11:14:36;3;3;
82886;PMS5003;72660;51.258;-2.200;2024-01-11T11:17:02;4;3;
82886;PMS5003;72660;51.258;-2.200;2024-01-11T11:19:27;5;5;
82886;PMS5003;72660;51.258;-2.200;2024-01-11T11:21:52;2;2;
82886;PMS5003;72660;51.258;-2.200;2024-01-11T11:24:17;4;4;
82886;PMS5003;72660;51.258;-2.200;2024-01-11T11:26:43;2;2;
82886;PMS5003;72660;51.258;-2.200;2024-01-11T11:29:08;1;1;
82886;PMS5003;72660;51.258;-2.200;2024-01-11T11:31:35;2;2;
82886;PMS5003;72660;51.258;-2.200;2024-01-11T11:33:59;5;3;
82886;PMS5003;72660;51.258;-2.200;2024-01-11T11:36:28;2;2;
82886;PMS5003;72660;51.258;-2.200;2024-01-11T11:38:50;3;3;
82886;PMS5003;72660;51.258;-2.200;2024-01-11T11:41:15;4;2;
82886;PMS5003;72660;51.258;-2.200;2024-01-11T11:43:41;2;2;
82886;PMS5003;72660;51.258;-2.200;2024-01-11T11:46:06;4;4;
82886;PMS5003;72660;51.258;-2.200;2024-01-11T11:51:01;3;3;
82886;PMS5003;72660;51.258;-2.200;2024-01-11T11:53:23;1;1;
82886;PMS5003;72660;51.258;-2.200;2024-01-11T11:55:48;2;2;
82886;PMS5003;72660;51.258;-2.200;2024-01-11T11:58:14;3;3;
82886;PMS5003;72660;51.258;-2.200;2024-01-11T12:00:39;4;4;
82886;PMS5003;72660;51.258;-2.200;2024-01-11T12:03:05;6;5;
82886;PMS5003;72660;51.258;-2.200;2024-01-11T12:05:30;4;4;
82886;PMS5003;72660;51.258;-2.200;2024-01-11T12:07:56;4;3;
82886;PMS5003;72660;51.258;-2.200;2024-01-11T12:10:21;5;5;
82886;PMS5003;72660;51.258;-2.200;2024-01-11T12:12:47;7;3;
82886;PMS5003;72660;51.258;-2.200;2024-01-11T12:15:12;4;4;
82886;PMS5003;72660;51.258;-2.200;2024-01-11T12:17:38;3;3;
82886;PMS5003;72660;51.258;-2.200;2024-01-11T12:20:03;7;6;
82886;PMS5003;72660;51.258;-2.200;2024-01-11T12:22:29;5;4;
82886;PMS5003;72660;51.258;-2.200;2024-01-11T12:24:54;5;4;
82886;PMS5003;72660;51.258;-2.200;2024-01-11T12:27:20;7;5;
82886;PMS5003;72660;51.258;-2.200;2024-01-11T12:29:45;5;5;
82886;PMS5003;72660;51.258;-2.200;2024-01-11T12:32:11;4;4;
82886;PMS5003;72660;51.258;-2.200;2024-01-11T12:34:36;5;5;
82886;PMS5003;72660;51.258;-2.200;2024-01-11T12:37:02;5;5;
82886;PMS5003;72660;51.258;-2.200;2024-01-11T12:39:27;5;4;
82886;PMS5003;72660;51.258;-2.200;2024-01-11T12:41:54;9;7;
82886;PMS5003;72660;51.258;-2.200;2024-01-11T12:44:18;8;6;
82886;PMS5003;72660;51.258;-2.200;2024-01-11T12:46:43;5;4;
82886;PMS5003;72660;51.258;-2.200;2024-01-11T12:49:09;2;2;
82886;PMS5003;72660;51.258;-2.200;2024-01-11T12:51:35;7;4;
82886;PMS5003;72660;51.258;-2.200;2024-01-11T12:53:59;2;2;
82886;PMS5003;72660;51.258;-2.200;2024-01-11T12:56:25;2;2;
82886;PMS5003;72660;51.258;-2.200;2024-01-11T12:58:50;4;4;
82886;PMS5003;72660;51.258;-2.200;2024-01-11T13:01:16;6;6;
82886;PMS5003;72660;51.258;-2.200;2024-01-11T13:03:43;4;4;
82886;PMS5003;72660;51.258;-2.200;2024-01-11T13:06:07;7;7;
82886;PMS5003;72660;51.258;-2.200;2024-01-11T13:08:32;4;4;
82886;PMS5003;72660;51.258;-2.200;2024-01-11T13:10:57;6;6;
82886;PMS5003;72660;51.258;-2.200;2024-01-11T13:13:23;3;3;
82886;PMS5003;72660;51.258;-2.200;2024-01-11T13:15:48;5;5;
82886;PMS5003;72660;51.258;-2.200;2024-01-11T13:18:14;8;6;
82886;PMS5003;72660;51.258;-2.200;2024-01-11T13:20:39;6;6;
82886;PMS5003;72660;51.258;-2.200;2024-01-11T13:23:12;5;5;
82886;PMS5003;72660;51.258;-2.200;2024-01-11T13:25:29;5;5;
82886;PMS5003;72660;51.258;-2.200;2024-01-11T13:27:55;7;6;
82886;PMS5003;72660;51.258;-2.200;2024-01-11T13:30:20;6;6;
82886;PMS5003;72660;51.258;-2.200;2024-01-11T13:32:46;4;4;
82886;PMS5003;72660;51.258;-2.200;2024-01-11T13:35:11;6;6;
82886;PMS5003;72660;51.258;-2.200;2024-01-11T13:37:36;4;4;
82886;PMS5003;72660;51.258;-2.200;2024-01-11T13:40:02;9;7;
82886;PMS5003;72660;51.258;-2.200;2024-01-11T13:42:28;5;4;
82886;PMS5003;72660;51.258;-2.200;2024-01-11T13:44:53;8;6;
82886;PMS5003;72660;51.258;-2.200;2024-01-11T13:47:18;5;3;
82886;PMS5003;72660;51.258;-2.200;2024-01-11T13:49:44;5;5;
82886;PMS5003;72660;51.258;-2.200;2024-01-11T13:52:09;5;5;
82886;PMS5003;72660;51.258;-2.200;2024-01-11T13:54:34;5;5;
82886;PMS5003;72660;51.258;-2.200;2024-01-11T13:57:00;4;4;
82886;PMS5003;72660;51.258;-2.200;2024-01-11T13:59:25;2;2;
82886;PMS5003;72660;51.258;-2.200;2024-01-11T14:01:51;3;3;
82886;PMS5003;72660;51.258;-2.200;2024-01-11T14:04:16;4;3;
82886;PMS5003;72660;51.258;-2.200;2024-01-11T14:06:42;4;4;
82886;PMS5003;72660;51.258;-2.200;2024-01-11T14:09:07;5;5;
82886;PMS5003;72660;51.258;-2.200;2024-01-11T14:11:33;5;4;
82886;PMS5003;72660;51.258;-2.200;2024-01-11T14:13:58;5;5;
82886;PMS5003;72660;51.258;-2.200;2024-01-11T14:16:24;4;4;
82886;PMS5003;72660;51.258;-2.200;2024-01-11T14:18:49;7;6;
82886;PMS5003;72660;51.258;-2.200;2024-01-11T14:21:15;3;3;
82886;PMS5003;72660;51.258;-2.200;2024-01-11T14:23:40;6;4;
82886;PMS5003;72660;51.258;-2.200;2024-01-11T14:26:06;4;4;
82886;PMS5003;72660;51.258;-2.200;2024-01-11T14:28:31;3;3;
82886;PMS5003;72660;51.258;-2.200;2024-01-11T14:30:57;6;4;
82886;PMS5003;72660;51.258;-2.200;2024-01-11T14:33:22;5;3;
82886;PMS5003;72660;51.258;-2.200;2024-01-11T14:35:48;6;4;
82886;PMS5003;72660;51.258;-2.200;2024-01-11T14:38:13;3;3;
82886;PMS5003;72660;51.258;-2.200;2024-01-11T14:40:38;4;4;
82886;PMS5003;72660;51.258;-2.200;2024-01-11T14:43:04;4;4;
82886;PMS5003;72660;51.258;-2.200;2024-01-11T14:45:29;3;3;
82886;PMS5003;72660;51.258;-2.200;2024-01-11T14:47:55;5;5;
82886;PMS5003;72660;51.258;-2.200;2024-01-11T14:50:20;4;4;
82886;PMS5003;72660;51.258;-2.200;2024-01-11T14:52:46;5;4;
82886;PMS5003;72660;51.258;-2.200;2024-01-11T14:55:11;8;5;
82886;PMS5003;72660;51.258;-2.200;2024-01-11T14:57:38;5;5;
82886;PMS5003;72660;51.258;-2.200;2024-01-11T15:00:03;4;4;
82886;PMS5003;72660;51.258;-2.200;2024-01-11T15:02:28;6;4;
82886;PMS5003;72660;51.258;-2.200;2024-01-11T15:04:53;6;6;
82886;PMS5003;72660;51.258;-2.200;2024-01-11T15:07:19;7;6;
82886;PMS5003;72660;51.258;-2.200;2024-01-11T15:09:44;8;6;
82886;PMS5003;72660;51.258;-2.200;2024-01-11T15:12:10;4;4;
82886;PMS5003;72660;51.258;-2.200;2024-01-11T15:14:35;6;4;
82886;PMS5003;72660;51.258;-2.200;2024-01-11T15:17:00;5;5;
82886;PMS5003;72660;51.258;-2.200;2024-01-11T15:19:26;5;5;
82886;PMS5003;72660;51.258;-2.200;2024-01-11T15:21:51;5;5;
82886;PMS5003;72660;51.258;-2.200;2024-01-11T15:24:17;4;4;
82886;PMS5003;72660;51.258;-2.200;2024-01-11T15:26:42;5;5;
82886;PMS5003;72660;51.258;-2.200;2024-01-11T15:29:08;6;6;
82886;PMS5003;72660;51.258;-2.200;2024-01-11T15:31:33;4;4;
82886;PMS5003;72660;51.258;-2.200;2024-01-11T15:33:58;5;5;
82886;PMS5003;72660;51.258;-2.200;2024-01-11T15:36:24;6;6;
82886;PMS5003;72660;51.258;-2.200;2024-01-11T15:38:49;5;5;
82886;PMS5003;72660;51.258;-2.200;2024-01-11T15:41:15;6;4;
82886;PMS5003;72660;51.258;-2.200;2024-01-11T15:43:40;2;2;
82886;PMS5003;72660;51.258;-2.200;2024-01-11T15:46:05;4;4;
82886;PMS5003;72660;51.258;-2.200;2024-01-11T15:48:31;6;4;
82886;PMS5003;72660;51.258;-2.200;2024-01-11T15:50:56;5;5;
82886;PMS5003;72660;51.258;-2.200;2024-01-11T15:53:22;6;6;
82886;PMS5003;72660;51.258;-2.200;2024-01-11T15:55:47;6;5;
82886;PMS5003;72660;51.258;-2.200;2024-01-11T15:58:12;4;4;
82886;PMS5003;72660;51.258;-2.200;2024-01-11T16:00:38;4;4;
82886;PMS5003;72660;51.258;-2.200;2024-01-11T16:03:03;6;6;
82886;PMS5003;72660;51.258;-2.200;2024-01-11T16:05:29;4;4;
82886;PMS5003;72660;51.258;-2.200;2024-01-11T16:07:54;4;4;
82886;PMS5003;72660;51.258;-2.200;2024-01-11T16:10:20;4;4;
82886;PMS5003;72660;51.258;-2.200;2024-01-11T16:12:45;3;3;
82886;PMS5003;72660;51.258;-2.200;2024-01-11T16:15:11;4;4;
82886;PMS5003;72660;51.258;-2.200;2024-01-11T16:17:36;5;5;